CA-0318 weather

CLOSED Round Hill Airport
Alberta, Canada

Public forecast

Using degrees Celsius for public forecast. Weather courtesy of forecast.io.

METAR (pilot weather report)

Closest report is CFB Cold Lake, 79.7 nm (147.7 km) SE. Retrieved 2019/05/21 11:00 UTC (6 minutes ago):

CYOD 211100Z 13006KT 15SM FEW085 BKN250 08/M01 A3001 RMK AC1CI6 SLP174

TAF (pilot weather forecast)

Closest forecast is CFB Cold Lake, 79.7 nm (147.7 km) SE. Retrieved 2019/05/21 06:35 UTC (5 hours ago):

TAF CYOD 210530Z 2106/2206 12006KT P6SM FEW090 FEW250 BECMG 2115/2117 12010KT FM212100 12012KT P6SM BKN080 BECMG 2201/2203 VRB03KT BECMG 2204/2206 SCT080 RMK NXT FCST BY 211200Z